Chattanooga, TN (37415)

11:21 PM EST on November 27, 2014 (GMT -0500)
Hermit Hacienda | Change Station
CLOSE
Current Station
Personal Weather Station
Location: Chattanooga, TN
Elevation: 870 ft
Nearby Weather Stations

Elev 870 ft 35.14 °N, 85.29 °W | Updated 1 minute ago

Overcast
Overcast
31.3 °F
Feels Like 31 °F
N
0.0
Wind Variable Wind from North
Gusts 0.0 mph

Today
High -- | Low -- °F
--% Chance of Precip.
Yesterday
High -- | Low -- °F
Precip. -- in
7:27 AM 5:29 PM
Waxing Crescent, 36% visible
Pressure 30.46 in
Visibility 10.0 miles
Clouds Mostly Cloudy 3000 ft
Windchill 31 °F
Dew Point 24 °F
Humidity 74%
Rainfall 0.00 in
Snow Depth Not available.
UV 0 out of 12
Pollen .60 out of 12
Air Quality Not available.
Flu Activity Not available.
METAR KCHA 280353Z 35007KT 10SM BKN030 01/M06 A3044 RMK AO2 SLP313 T00111056

More Conditions Fewer Conditions

Pressure 30.46 in
Visibility 10.0 miles
Clouds Mostly Cloudy 3000 ft
Windchill 31 °F
Dew Point 24 °F
Humidity 74%
Rainfall 0.00 in
Snow Depth Not available.
UV 0 out of 12
Pollen .60 out of 12
Air Quality Not available.
Flu Activity Not available.
METAR KCHA 280353Z 35007KT 10SM BKN030 01/M06 A3044 RMK AO2 SLP313 T00111056

More Conditions Fewer Conditions

10-Day Weather Forecast

Almanac

Astronomy

Nov. 27, 2014 Rise Set
Actual Time
Civil Twilight
Nautical Twilight
Astronomical Twilight
Moon
Length of Visible Light
Length of Day
Tomorrow will be .
, % of the Moon is Illuminated

Today's Extremes

State Highs State Lows

Community

WunderPhotos

Upload Photos

1,774,180 photos uploaded!

WunderBlogs® & News

Nearby

Air Quality

  Air Quality AQ Index Pollutant
Not available.

Snow Depth

Station Depth Elevation

Earthquake Activity

City Distance Mag. Time & Date
Minimum magnitude displayed is 2.5.

Coastal Water Temperatures

Place Temperature

Nearby Weather Stations